createdAt,value
2023-04-18T00:09:02.804Z,5.60
2023-04-18T00:19:02.449Z,5.20
2023-04-18T00:29:03.745Z,4.90
2023-04-18T00:39:04.619Z,5.20
2023-04-18T00:49:05.792Z,5.90
2023-04-18T00:59:07.000Z,4.70
2023-04-18T01:09:07.852Z,4.90
2023-04-18T01:19:09.108Z,5.90
2023-04-18T01:29:10.036Z,5.40
2023-04-18T01:39:11.120Z,5.30
2023-04-18T01:49:12.199Z,5.70
2023-04-18T01:59:13.283Z,5.80
2023-04-18T02:09:14.281Z,5.50
2023-04-18T02:19:15.338Z,6.10
2023-04-18T02:29:16.390Z,6.60
2023-04-18T02:49:18.525Z,5.90
2023-04-18T02:59:19.508Z,7.00
2023-04-18T03:09:20.770Z,6.80
2023-04-18T03:19:21.593Z,6.50
2023-04-18T03:29:23.791Z,7.00
2023-04-18T03:39:23.749Z,6.80
2023-04-18T03:49:24.969Z,7.00
2023-04-18T03:59:25.848Z,7.60
2023-04-18T04:09:26.809Z,8.60
2023-04-18T04:19:27.865Z,7.30
2023-04-18T04:29:28.969Z,7.50
2023-04-18T04:39:30.000Z,7.70
2023-04-18T04:49:31.041Z,6.50
2023-04-18T04:59:32.083Z,6.80
2023-04-18T05:09:33.333Z,8.20
2023-04-18T05:19:34.206Z,7.20
2023-04-18T05:29:35.443Z,6.60
2023-04-18T05:39:36.858Z,8.10
2023-04-18T05:49:37.479Z,7.80
2023-04-18T05:59:38.555Z,6.70
2023-04-18T06:09:39.895Z,7.60
2023-04-18T06:19:42.166Z,6.70
2023-04-18T06:29:42.895Z,7.90
2023-04-18T06:39:42.951Z,6.80
2023-04-18T06:49:44.099Z,7.00
2023-04-18T06:59:45.286Z,6.10
2023-04-18T07:09:46.284Z,6.40
2023-04-18T07:19:48.758Z,5.80
2023-04-18T07:29:49.265Z,5.20
2023-04-18T07:39:49.759Z,5.70
2023-04-18T07:59:52.110Z,4.90
2023-04-18T08:19:54.576Z,5.90
2023-04-18T08:29:55.762Z,4.60
2023-04-18T08:39:56.902Z,5.70
2023-04-18T08:49:58.141Z,5.10
2023-04-18T08:59:59.409Z,4.80
2023-04-18T09:10:00.705Z,4.90
2023-04-18T09:20:02.042Z,5.10
2023-04-18T09:30:03.582Z,6.00
2023-04-18T09:40:05.060Z,4.80
2023-04-18T09:50:06.243Z,4.40
2023-04-18T10:00:07.245Z,3.90
2023-04-18T10:10:08.588Z,3.80
2023-04-18T10:20:10.229Z,4.80
2023-04-18T10:30:11.400Z,5.50
2023-04-18T10:40:12.740Z,4.40
2023-04-18T10:50:14.349Z,4.20
2023-04-18T11:00:15.700Z,4.60
2023-04-18T11:10:17.216Z,5.00
2023-04-18T11:20:18.792Z,3.80
2023-04-18T11:30:20.203Z,3.70
2023-04-18T11:40:21.702Z,4.60
2023-04-18T11:50:23.437Z,4.30
2023-04-18T12:00:24.948Z,4.50
2023-04-18T12:10:26.668Z,4.20
2023-04-18T12:20:27.950Z,4.30
2023-04-18T12:40:30.610Z,3.70
2023-04-18T12:50:32.416Z,4.70
2023-04-18T13:00:33.562Z,4.40
2023-04-18T13:30:37.915Z,4.60
2023-04-18T13:40:39.310Z,4.30
2023-04-18T13:50:40.734Z,4.70
2023-04-18T14:00:42.418Z,4.10
2023-04-18T14:10:43.605Z,4.70
2023-04-18T14:20:45.127Z,4.10
2023-04-18T14:30:46.653Z,5.20
2023-04-18T14:40:47.762Z,4.30
2023-04-18T14:50:49.170Z,4.80
2023-04-18T15:00:51.769Z,3.90
2023-04-18T15:10:52.023Z,4.30
2023-04-18T15:20:53.174Z,4.20
2023-04-18T15:30:54.740Z,5.30
2023-04-18T15:40:55.786Z,4.20
2023-04-18T15:50:57.157Z,4.30
2023-04-18T16:00:58.533Z,4.90
2023-04-18T16:10:59.862Z,5.50
2023-04-18T16:21:01.296Z,5.00
2023-04-18T16:31:02.887Z,5.40
2023-04-18T16:41:04.354Z,4.90
2023-04-18T16:51:05.532Z,5.30
2023-04-18T17:01:06.748Z,5.20
2023-04-18T17:11:08.861Z,4.50
2023-04-18T17:21:09.472Z,4.90
2023-04-18T17:31:10.899Z,5.60
2023-04-18T17:41:12.254Z,4.90
2023-04-18T17:51:13.446Z,5.10
2023-04-18T18:01:14.693Z,5.80
2023-04-18T18:11:15.942Z,5.60
2023-04-18T18:21:17.278Z,5.90
2023-04-18T18:31:18.531Z,6.50
2023-04-18T18:41:19.650Z,6.00
2023-04-18T18:51:20.875Z,6.20
2023-04-18T19:01:22.333Z,8.10
2023-04-18T19:11:23.502Z,7.50
2023-04-18T19:21:24.797Z,8.50
2023-04-18T19:31:25.974Z,6.50
2023-04-18T19:41:27.155Z,6.20
2023-04-18T19:51:28.732Z,7.20
2023-04-18T20:01:29.607Z,5.90
2023-04-18T20:11:30.747Z,5.10
2023-04-18T20:21:33.468Z,5.90
2023-04-18T20:31:33.263Z,5.30
2023-04-18T20:41:34.510Z,5.90
2023-04-18T20:51:35.592Z,6.40
2023-04-18T21:01:37.244Z,6.20
2023-04-18T21:11:37.818Z,6.80
2023-04-18T21:21:39.173Z,6.20
2023-04-18T21:31:40.169Z,6.30
2023-04-18T21:41:41.588Z,6.10
2023-04-18T22:01:43.558Z,6.00
2023-04-18T22:11:44.672Z,5.50
2023-04-18T22:31:46.940Z,5.20
2023-04-18T22:51:48.965Z,5.10
2023-04-18T23:01:50.088Z,5.70
2023-04-18T23:11:51.171Z,5.10
2023-04-18T23:21:52.294Z,4.80
2023-04-18T23:31:53.487Z,5.30
2023-04-18T23:51:55.682Z,4.70
